Eizo Maru — JD2944 — position and weather

sailwx.info

Track history (hours):
 
Tides and Currents Weather Stations Pressure Air Temp Water Temp Dewpoint Dewpoint Depression Visibility Wind Speed Wind Dir Waves Ship Positions

Eizo Maru

Last reported at 2015-Jan-26 05:06 UTC. Time now 2015-Jan-26 22:34 UTC.
Position N 34°01' E 135°02'.

Length 80 m; draft 4.2 m.

Type: Tanker. MMSI: 431000976.

Date/timePositionNaut miles runAvg speedWind from/ knotsBaromVisibWave heightAir tempDewpointWater temp
2015-Jan-26 05:06N 34°01' E 135°02'710.5
2015-Jan-26 04:24N 34°07' E 135°07'1 0.1
2015-Jan-25 23:33N 34°07' E 135°07'0 0.2
2015-Jan-25 22:32N 34°07' E 135°08'0 0.0
2015-Jan-25 21:33N 34°07' E 135°08'0 0.0
2015-Jan-25 20:26N 34°07' E 135°08'0 0.0
2015-Jan-25 19:33N 34°07' E 135°08'0 0.0
2015-Jan-25 18:31N 34°07' E 135°08'0 0.0
2015-Jan-25 17:13N 34°07' E 135°08'0 0.0
2015-Jan-25 16:25N 34°07' E 135°08'0 0.0
2015-Jan-25 14:19N 34°07' E 135°08'0 0.0
2015-Jan-25 11:24N 34°07' E 135°08'0 0.0
2015-Jan-25 10:32N 34°07' E 135°08'0 0.0
2015-Jan-25 09:25N 34°07' E 135°08'1011.1
2015-Jan-25 08:32N 34°14' E 134°60'1312.3
2015-Jan-25 07:28N 34°26' E 135°08'1213.4
2015-Jan-25 06:33N 34°32' E 135°20'5 0.7
2015-Jan-24 23:32N 34°33' E 135°26'1 0.7
2015-Jan-24 22:28N 34°33' E 135°25'2 0.1
2015-Jan-24 05:30N 34°31' E 135°24'8 8.5
2015-Jan-24 04:33N 34°29' E 135°15'1913.0
2015-Jan-24 03:06N 34°15' E 134°59'814.1
2015-Jan-24 02:33N 34°07' E 135°00'  
2015-Jan-21 09:32N 34°05' E 135°03'4 0.7
2015-Jan-21 03:32N 34°07' E 135°08'0 0.0
2015-Jan-20 11:03N 34°07' E 135°07'5 9.2
2015-Jan-20 10:34N 34°05' E 135°02'208 9.7
2015-Jan-19 13:05N 34°48' E 139°10'712.9
2015-Jan-19 12:33N 34°53' E 139°15'1712.9
2015-Jan-19 11:16N 35°02' E 139°33'912.4
2015-Jan-19 10:32N 35°07' E 139°42'1111.6
2015-Jan-19 09:33N 35°18' E 139°44'1111.2
2015-Jan-19 08:33N 35°29' E 139°47'2 1.5
2015-Jan-19 07:08N 35°31' E 139°46'0 0.0
2015-Jan-19 06:14N 35°31' E 139°46'0 0.1
2015-Jan-19 05:20N 35°31' E 139°46'0 0.0
2015-Jan-19 02:33N 35°31' E 139°46'3 2.5
2015-Jan-19 01:32N 35°29' E 139°48'0 0.0
2015-Jan-19 00:26N 35°29' E 139°48'0 0.0
2015-Jan-18 23:32N 35°29' E 139°48'0 0.0
2015-Jan-18 22:32N 35°29' E 139°48'0 0.0
2015-Jan-18 21:32N 35°29' E 139°48'0 0.0
2015-Jan-18 20:32N 35°29' E 139°48'0 0.0
2015-Jan-18 19:32N 35°29' E 139°48'0 0.0
2015-Jan-18 18:26N 35°29' E 139°48'0 0.0
2015-Jan-18 17:32N 35°29' E 139°48'0 0.0
2015-Jan-18 16:32N 35°29' E 139°48'0 0.0
2015-Jan-18 15:32N 35°29' E 139°48'0 0.0
2015-Jan-18 14:11N 35°29' E 139°48'711.2
2015-Jan-18 13:33N 35°22' E 139°45'1212.0
2015-Jan-18 12:33N 35°10' E 139°47'1413.6
2015-Jan-18 11:33N 35°00' E 139°36'230 4.5
2015-Jan-16 08:29N 34°07' E 135°04'  
Track history (hours):
 
Tides and Currents Weather Stations Pressure Air Temp Water Temp Dewpoint Dewpoint Depression Visibility Wind Speed Wind Dir Waves Ship Positions

Eizo Maru

Last reported at 2015-Jan-26 05:06 UTC. Time now 2015-Jan-26 22:34 UTC.
Position N 34°01' E 135°02'.

Length 80 m; draft 4.2 m.

Type: Tanker. MMSI: 431000976.

Date/timePositionNaut miles runAvg speedWind from/ knotsBaromVisibWave heightAir tempDewpointWater temp
2015-Jan-26 05:06N 34°01' E 135°02'710.5
2015-Jan-26 04:24N 34°07' E 135°07'1 0.1
2015-Jan-25 23:33N 34°07' E 135°07'0 0.2
2015-Jan-25 22:32N 34°07' E 135°08'0 0.0
2015-Jan-25 21:33N 34°07' E 135°08'0 0.0
2015-Jan-25 20:26N 34°07' E 135°08'0 0.0
2015-Jan-25 19:33N 34°07' E 135°08'0 0.0
2015-Jan-25 18:31N 34°07' E 135°08'0 0.0
2015-Jan-25 17:13N 34°07' E 135°08'0 0.0
2015-Jan-25 16:25N 34°07' E 135°08'0 0.0
2015-Jan-25 14:19N 34°07' E 135°08'0 0.0
2015-Jan-25 11:24N 34°07' E 135°08'0 0.0
2015-Jan-25 10:32N 34°07' E 135°08'0 0.0
2015-Jan-25 09:25N 34°07' E 135°08'1011.1
2015-Jan-25 08:32N 34°14' E 134°60'1312.3
2015-Jan-25 07:28N 34°26' E 135°08'1213.4
2015-Jan-25 06:33N 34°32' E 135°20'5 0.7
2015-Jan-24 23:32N 34°33' E 135°26'1 0.7
2015-Jan-24 22:28N 34°33' E 135°25'2 0.1
2015-Jan-24 05:30N 34°31' E 135°24'8 8.5
2015-Jan-24 04:33N 34°29' E 135°15'1913.0
2015-Jan-24 03:06N 34°15' E 134°59'814.1
2015-Jan-24 02:33N 34°07' E 135°00'  
2015-Jan-21 09:32N 34°05' E 135°03'4 0.7
2015-Jan-21 03:32N 34°07' E 135°08'0 0.0
2015-Jan-20 11:03N 34°07' E 135°07'5 9.2
2015-Jan-20 10:34N 34°05' E 135°02'208 9.7
2015-Jan-19 13:05N 34°48' E 139°10'712.9
2015-Jan-19 12:33N 34°53' E 139°15'1712.9
2015-Jan-19 11:16N 35°02' E 139°33'912.4
2015-Jan-19 10:32N 35°07' E 139°42'1111.6
2015-Jan-19 09:33N 35°18' E 139°44'1111.2
2015-Jan-19 08:33N 35°29' E 139°47'2 1.5
2015-Jan-19 07:08N 35°31' E 139°46'0 0.0
2015-Jan-19 06:14N 35°31' E 139°46'0 0.1
2015-Jan-19 05:20N 35°31' E 139°46'0 0.0
2015-Jan-19 02:33N 35°31' E 139°46'3 2.5
2015-Jan-19 01:32N 35°29' E 139°48'0 0.0
2015-Jan-19 00:26N 35°29' E 139°48'0 0.0
2015-Jan-18 23:32N 35°29' E 139°48'0 0.0
2015-Jan-18 22:32N 35°29' E 139°48'0 0.0
2015-Jan-18 21:32N 35°29' E 139°48'0 0.0
2015-Jan-18 20:32N 35°29' E 139°48'0 0.0
2015-Jan-18 19:32N 35°29' E 139°48'0 0.0
2015-Jan-18 18:26N 35°29' E 139°48'0 0.0
2015-Jan-18 17:32N 35°29' E 139°48'0 0.0
2015-Jan-18 16:32N 35°29' E 139°48'0 0.0
2015-Jan-18 15:32N 35°29' E 139°48'0 0.0
2015-Jan-18 14:11N 35°29' E 139°48'711.2
2015-Jan-18 13:33N 35°22' E 139°45'1212.0
2015-Jan-18 12:33N 35°10' E 139°47'1413.6
2015-Jan-18 11:33N 35°00' E 139°36'230 4.5
2015-Jan-16 08:29N 34°07' E 135°04'  

Dump ship's entire track history